createdAt,value
2019-02-10T00:02:34.344Z,6.39
2019-02-10T00:05:50.146Z,6.51
2019-02-10T00:09:07.732Z,6.39
2019-02-10T00:12:23.696Z,6.37
2019-02-10T00:15:39.082Z,6.31
2019-02-10T00:18:54.627Z,6.28
2019-02-10T00:22:09.963Z,6.49
2019-02-10T00:25:25.106Z,6.50
2019-02-10T00:28:40.680Z,6.54
2019-02-10T00:31:56.023Z,6.48
2019-02-10T00:35:11.167Z,6.64
2019-02-10T00:38:26.418Z,6.71
2019-02-10T00:41:42.162Z,6.62
2019-02-10T00:44:57.330Z,6.67
2019-02-10T00:48:12.689Z,6.61
2019-02-10T00:51:27.986Z,6.62
2019-02-10T00:54:43.587Z,6.65
2019-02-10T00:57:58.950Z,6.61
2019-02-10T01:01:14.508Z,6.69
2019-02-10T01:04:29.858Z,6.82
2019-02-10T01:07:45.217Z,6.80
2019-02-10T01:11:00.789Z,6.89
2019-02-10T01:14:16.330Z,6.99
2019-02-10T01:17:31.683Z,6.99
2019-02-10T01:20:46.939Z,6.85
2019-02-10T01:24:02.489Z,6.79
2019-02-10T01:27:17.849Z,6.82
2019-02-10T01:30:34.216Z,6.89
2019-02-10T01:33:49.896Z,6.85
2019-02-10T01:37:05.295Z,6.91
2019-02-10T01:40:20.590Z,7.02
2019-02-10T01:43:35.946Z,7.05
2019-02-10T01:46:51.850Z,7.21
2019-02-10T01:50:08.074Z,7.11
2019-02-10T01:53:23.435Z,7.19
2019-02-10T01:56:38.686Z,7.21
2019-02-10T01:59:54.046Z,7.35
2019-02-10T02:03:10.179Z,7.39
2019-02-10T02:06:26.067Z,7.46
2019-02-10T02:09:41.327Z,7.49
2019-02-10T02:12:56.682Z,7.50
2019-02-10T02:16:12.040Z,7.55
2019-02-10T02:19:27.844Z,7.67
2019-02-10T02:22:43.263Z,7.76
2019-02-10T02:25:58.704Z,7.79
2019-02-10T02:29:14.163Z,7.74
2019-02-10T02:32:29.626Z,7.72
2019-02-10T02:35:44.971Z,7.85
2019-02-10T02:39:00.465Z,7.79
2019-02-10T02:42:16.283Z,7.82
2019-02-10T02:45:31.792Z,7.91
2019-02-10T02:48:47.665Z,7.95
2019-02-10T02:52:03.103Z,8.00
2019-02-10T02:55:18.388Z,8.03
2019-02-10T02:58:33.879Z,8.09
2019-02-10T03:01:49.988Z,8.20
2019-02-10T03:05:05.008Z,8.23
2019-02-10T03:08:20.451Z,8.40
2019-02-10T03:11:35.915Z,8.38
2019-02-10T03:14:51.380Z,8.37
2019-02-10T03:18:06.923Z,8.42
2019-02-10T03:21:22.171Z,8.46
2019-02-10T03:24:38.340Z,8.51
2019-02-10T03:27:53.621Z,8.50
2019-02-10T03:31:09.487Z,8.42
2019-02-10T03:34:24.818Z,8.35
2019-02-10T03:37:40.167Z,8.23
2019-02-10T03:40:55.425Z,8.31
2019-02-10T03:44:10.703Z,8.23
2019-02-10T03:47:26.052Z,8.10
2019-02-10T03:50:41.476Z,8.19
2019-02-10T03:53:56.831Z,8.15
2019-02-10T03:57:12.496Z,8.16
2019-02-10T04:00:27.955Z,8.04
2019-02-10T04:03:43.297Z,8.12
2019-02-10T04:06:58.676Z,8.16
2019-02-10T04:10:14.710Z,8.05
2019-02-10T04:13:29.972Z,8.05
2019-02-10T04:16:45.532Z,7.96
2019-02-10T04:20:00.900Z,7.91
2019-02-10T04:23:16.142Z,8.07
2019-02-10T04:26:31.269Z,7.91
2019-02-10T04:29:46.539Z,7.89
2019-02-10T04:33:01.991Z,7.83
2019-02-10T04:36:17.350Z,7.95
2019-02-10T04:39:32.497Z,7.88
2019-02-10T04:42:48.339Z,7.80
2019-02-10T04:46:03.814Z,7.79
2019-02-10T04:49:18.967Z,7.77
2019-02-10T04:52:34.216Z,7.71
2019-02-10T04:56:10.308Z,7.80
2019-02-10T04:59:25.490Z,7.84
2019-02-10T05:02:41.386Z,7.87
2019-02-10T05:05:56.626Z,7.78
2019-02-10T05:09:12.167Z,7.92
2019-02-10T05:12:27.823Z,7.78
2019-02-10T05:15:43.380Z,7.87
2019-02-10T05:18:58.766Z,7.86
2019-02-10T05:22:13.988Z,7.71
2019-02-10T05:25:29.442Z,7.72
2019-02-10T05:28:45.001Z,7.68
2019-02-10T05:32:00.362Z,7.75
2019-02-10T05:35:15.707Z,7.74
2019-02-10T05:38:30.963Z,7.68
2019-02-10T05:41:46.797Z,7.65
2019-02-10T05:45:02.281Z,7.72
2019-02-10T05:48:17.836Z,7.66
2019-02-10T05:51:32.984Z,7.71
2019-02-10T05:54:48.440Z,7.63
2019-02-10T05:58:03.899Z,7.62
2019-02-10T06:01:58.308Z,7.68
2019-02-10T06:05:19.203Z,7.65
2019-02-10T06:08:34.471Z,7.60
2019-02-10T06:11:49.734Z,7.65
2019-02-10T06:15:05.366Z,7.70
2019-02-10T06:18:20.631Z,7.76
2019-02-10T06:21:36.197Z,7.70
2019-02-10T06:24:51.747Z,7.72
2019-02-10T06:28:06.998Z,7.77
2019-02-10T06:31:22.356Z,7.80
2019-02-10T06:34:37.817Z,7.77
2019-02-10T06:37:53.962Z,7.85
2019-02-10T06:41:09.266Z,7.81
2019-02-10T06:44:24.696Z,7.85
2019-02-10T06:47:39.939Z,7.89
2019-02-10T06:50:55.186Z,7.98
2019-02-10T06:54:10.750Z,7.93
2019-02-10T06:57:26.803Z,8.05
2019-02-10T07:00:58.328Z,8.08
2019-02-10T07:04:20.262Z,7.98
2019-02-10T07:07:35.739Z,7.95
2019-02-10T07:10:50.947Z,8.07
2019-02-10T07:14:14.634Z,8.05
2019-02-10T07:17:43.646Z,8.09
2019-02-10T07:20:58.906Z,8.11
2019-02-10T07:25:00.559Z,8.26
2019-02-10T07:28:42.259Z,8.20
2019-02-10T07:32:08.982Z,8.25
2019-02-10T07:35:31.592Z,8.12
2019-02-10T07:39:25.115Z,8.10
2019-02-10T07:43:07.851Z,8.06
2019-02-10T07:46:56.004Z,8.11
2019-02-10T07:50:37.235Z,8.13
2019-02-10T07:54:10.397Z,8.11
2019-02-10T07:58:00.432Z,8.10
2019-02-10T08:02:17.899Z,8.12
2019-02-10T08:06:02.630Z,8.16
2019-02-10T08:10:01.171Z,8.08
2019-02-10T08:14:03.701Z,8.06
2019-02-10T08:18:14.202Z,8.16
2019-02-10T08:22:21.735Z,8.17
2019-02-10T08:26:17.969Z,8.17
2019-02-10T08:30:16.213Z,8.21
2019-02-10T08:33:42.154Z,8.32
2019-02-10T08:37:25.763Z,8.46
2019-02-10T08:41:09.868Z,8.56
2019-02-10T08:44:46.303Z,8.67
2019-02-10T08:48:26.932Z,8.77
2019-02-10T08:51:52.524Z,8.76
2019-02-10T08:55:07.917Z,8.87
2019-02-10T08:58:23.968Z,8.94
2019-02-10T09:01:39.412Z,9.05
2019-02-10T09:04:55.470Z,9.13
2019-02-10T09:08:12.265Z,9.19
2019-02-10T09:11:28.532Z,9.25
2019-02-10T09:14:44.099Z,9.34
2019-02-10T09:17:59.595Z,9.35
2019-02-10T09:21:15.015Z,9.45
2019-02-10T09:24:30.262Z,9.43
2019-02-10T09:27:45.718Z,9.49
2019-02-10T09:31:01.007Z,9.45
2019-02-10T09:34:16.323Z,9.41
2019-02-10T09:37:31.686Z,9.43
2019-02-10T09:40:47.835Z,9.52
2019-02-10T09:44:02.894Z,9.54
2019-02-10T09:47:18.009Z,9.57
2019-02-10T09:50:34.177Z,9.62
2019-02-10T09:53:49.423Z,9.73
2019-02-10T09:57:04.737Z,9.79
2019-02-10T10:00:19.977Z,9.84
2019-02-10T10:03:35.528Z,9.76
2019-02-10T10:06:51.913Z,9.59
2019-02-10T10:10:08.581Z,9.47
2019-02-10T10:13:24.046Z,9.41
2019-02-10T10:16:39.405Z,9.49
2019-02-10T10:19:55.551Z,9.46
2019-02-10T10:23:11.403Z,9.52
2019-02-10T10:26:27.587Z,9.41
2019-02-10T10:29:42.971Z,9.36
2019-02-10T10:32:58.183Z,9.19
2019-02-10T10:36:14.487Z,9.12
2019-02-10T10:39:30.005Z,9.18
2019-02-10T10:42:46.208Z,9.20
2019-02-10T10:46:01.487Z,9.23
2019-02-10T10:49:17.380Z,9.20
2019-02-10T10:52:33.535Z,9.21
2019-02-10T10:55:48.859Z,9.18
2019-02-10T10:59:04.314Z,9.17
2019-02-10T11:02:20.476Z,9.24
2019-02-10T11:05:36.139Z,9.29
2019-02-10T11:08:51.641Z,9.30
2019-02-10T11:12:07.387Z,9.30
2019-02-10T11:15:22.714Z,9.32
2019-02-10T11:18:37.876Z,9.34
2019-02-10T11:21:53.958Z,9.30
2019-02-10T11:25:09.266Z,9.28
2019-02-10T11:28:24.547Z,9.20
2019-02-10T11:31:39.995Z,9.11
2019-02-10T11:34:56.157Z,9.05
2019-02-10T11:38:11.818Z,8.99
2019-02-10T11:41:29.565Z,8.96
2019-02-10T11:44:44.787Z,8.95
2019-02-10T11:48:00.243Z,8.93
2019-02-10T11:51:16.385Z,8.91
2019-02-10T11:54:32.780Z,8.89
2019-02-10T11:57:48.061Z,8.87
2019-02-10T12:01:04.194Z,8.83
2019-02-10T12:04:20.127Z,8.82
2019-02-10T12:07:35.433Z,8.83
2019-02-10T12:10:51.475Z,8.83
2019-02-10T12:14:07.170Z,8.91
2019-02-10T12:17:23.478Z,8.88
2019-02-10T12:20:38.656Z,8.91
2019-02-10T12:23:53.806Z,8.97
2019-02-10T12:27:12.143Z,8.97
2019-02-10T12:30:27.865Z,8.98
2019-02-10T12:33:44.031Z,9.02
2019-02-10T12:36:59.548Z,9.03
2019-02-10T12:40:14.917Z,9.06
2019-02-10T12:43:30.030Z,9.03
2019-02-10T12:46:46.016Z,9.09
2019-02-10T12:50:01.541Z,9.08
2019-02-10T12:53:17.471Z,9.08
2019-02-10T12:56:33.815Z,9.10
2019-02-10T12:59:49.682Z,9.13
2019-02-10T13:03:05.125Z,9.11
2019-02-10T13:06:20.296Z,9.15
2019-02-10T13:09:35.739Z,9.06
2019-02-10T13:12:51.872Z,9.01
2019-02-10T13:16:07.476Z,8.88
2019-02-10T13:32:18.242Z,8.84
2019-02-10T13:35:34.191Z,8.82
2019-02-10T13:38:49.750Z,8.82
2019-02-10T13:42:05.137Z,8.81
2019-02-10T13:45:20.482Z,8.83
2019-02-10T13:48:36.029Z,8.79
2019-02-10T13:51:51.817Z,8.67
2019-02-10T13:55:07.942Z,8.62
2019-02-10T13:58:24.163Z,8.57
2019-02-10T14:01:39.582Z,8.60
2019-02-10T14:04:54.508Z,8.39
2019-02-10T14:08:09.881Z,8.35
2019-02-10T14:11:25.386Z,8.17
2019-02-10T14:14:41.290Z,8.06
2019-02-10T14:17:56.659Z,7.89
2019-02-10T14:21:11.194Z,7.85
2019-02-10T14:24:28.139Z,7.70
2019-02-10T14:27:43.718Z,7.64
2019-02-10T14:30:58.890Z,7.53
2019-02-10T14:34:15.009Z,7.52
2019-02-10T14:37:30.074Z,7.56
2019-02-10T14:40:45.462Z,7.48
2019-02-10T14:44:00.944Z,7.30
2019-02-10T14:47:16.371Z,7.40
2019-02-10T14:50:31.570Z,7.42
2019-02-10T14:53:47.631Z,7.30
2019-02-10T14:57:02.976Z,7.17
2019-02-10T15:00:18.628Z,7.06
2019-02-10T15:03:33.956Z,6.93
2019-02-10T15:06:49.211Z,6.95
2019-02-10T15:10:05.264Z,7.00
2019-02-10T15:13:20.531Z,6.90
2019-02-10T15:16:36.061Z,7.03
2019-02-10T15:19:52.270Z,7.00
2019-02-10T15:23:08.351Z,6.95
2019-02-10T15:26:23.785Z,7.02
2019-02-10T15:29:39.340Z,7.08
2019-02-10T15:32:54.923Z,7.10
2019-02-10T15:36:10.151Z,7.10
2019-02-10T15:39:25.308Z,7.11
2019-02-10T15:42:41.564Z,7.05
2019-02-10T15:45:57.763Z,7.06
2019-02-10T15:49:12.895Z,7.04
2019-02-10T15:52:28.846Z,7.08
2019-02-10T15:55:44.215Z,7.09
2019-02-10T15:59:00.264Z,7.02
2019-02-10T16:02:15.547Z,6.94
2019-02-10T16:05:30.929Z,6.94
2019-02-10T16:08:46.470Z,7.01
2019-02-10T16:12:02.350Z,6.94
2019-02-10T16:15:17.773Z,6.91
2019-02-10T16:18:33.263Z,6.82
2019-02-10T16:21:48.580Z,6.86
2019-02-10T16:25:04.276Z,6.87
2019-02-10T16:28:20.198Z,6.72
2019-02-10T16:31:36.579Z,6.58
2019-02-10T16:34:51.813Z,6.50
2019-02-10T16:38:06.980Z,6.40
2019-02-10T16:41:22.292Z,6.43
2019-02-10T16:44:38.423Z,6.44
2019-02-10T16:47:53.962Z,6.46
2019-02-10T16:51:10.052Z,6.54
2019-02-10T16:54:25.426Z,6.55
2019-02-10T16:57:41.010Z,6.52
2019-02-10T17:00:56.480Z,6.47
2019-02-10T17:04:11.972Z,6.39
2019-02-10T17:07:27.886Z,6.42
2019-02-10T17:10:43.071Z,6.33
2019-02-10T17:13:58.521Z,6.13
2019-02-10T17:17:14.409Z,5.94
2019-02-10T17:20:29.555Z,5.95
2019-02-10T17:23:45.075Z,5.84
2019-02-10T17:27:00.451Z,5.79
2019-02-10T17:30:15.821Z,5.78
2019-02-10T17:33:31.055Z,5.89
2019-02-10T17:36:46.316Z,5.89
2019-02-10T17:40:01.556Z,5.83
2019-02-10T17:43:16.913Z,5.80
2019-02-10T17:46:34.922Z,5.73
2019-02-10T17:49:50.375Z,5.67
2019-02-10T17:53:05.936Z,5.68
2019-02-10T17:56:21.287Z,5.78
2019-02-10T17:59:37.109Z,5.73
2019-02-10T18:02:52.623Z,5.74
2019-02-10T18:06:08.171Z,5.86
2019-02-10T18:09:23.432Z,5.71
2019-02-10T18:12:39.457Z,5.76
2019-02-10T18:16:18.450Z,5.72
2019-02-10T18:19:43.484Z,5.70
2019-02-10T18:23:15.586Z,5.75
2019-02-10T18:26:46.405Z,5.73
2019-02-10T18:30:15.513Z,5.62
2019-02-10T18:33:36.667Z,5.64
2019-02-10T18:37:08.909Z,5.62
2019-02-10T18:40:42.585Z,5.64
2019-02-10T18:44:14.549Z,5.64
2019-02-10T18:47:37.220Z,5.75
2019-02-10T18:51:11.059Z,5.73
2019-02-10T18:54:42.559Z,5.67
2019-02-10T18:58:14.664Z,5.61
2019-02-10T19:01:47.462Z,5.46
2019-02-10T19:05:25.343Z,5.48
2019-02-10T19:09:05.491Z,5.38
2019-02-10T19:12:29.545Z,5.28
2019-02-10T19:15:55.043Z,5.17
2019-02-10T19:19:28.977Z,5.11
2019-02-10T19:22:56.205Z,5.09
2019-02-10T19:26:32.451Z,5.03
2019-02-10T19:29:58.151Z,5.02
2019-02-10T19:33:23.211Z,4.96
2019-02-10T19:36:50.936Z,4.93
2019-02-10T19:40:22.382Z,4.94
2019-02-10T19:43:55.243Z,4.82
2019-02-10T19:47:21.716Z,4.80
2019-02-10T19:50:59.499Z,4.81
2019-02-10T19:54:19.971Z,4.86
2019-02-10T19:57:51.845Z,4.82
2019-02-10T20:01:23.759Z,4.85
2019-02-10T20:04:55.872Z,4.94
2019-02-10T20:08:35.669Z,4.93
2019-02-10T20:12:03.974Z,4.96
2019-02-10T20:15:32.512Z,4.92
2019-02-10T20:18:53.789Z,4.93
2019-02-10T20:22:38.819Z,4.85
2019-02-10T20:26:13.568Z,4.82
2019-02-10T20:29:46.360Z,4.87
2019-02-10T20:33:14.654Z,4.94
2019-02-10T20:36:43.843Z,4.90
2019-02-10T20:40:16.706Z,4.92
2019-02-10T20:43:40.647Z,4.93
2019-02-10T20:47:28.966Z,4.95
2019-02-10T20:50:52.600Z,4.94
2019-02-10T20:54:13.383Z,4.88
2019-02-10T20:57:49.400Z,4.90
2019-02-10T21:01:17.449Z,4.89
2019-02-10T21:04:47.645Z,4.85
2019-02-10T21:08:21.893Z,4.87
2019-02-10T21:12:11.824Z,4.90
2019-02-10T21:15:43.350Z,4.92
2019-02-10T21:19:15.318Z,4.91
2019-02-10T21:22:48.172Z,4.93
2019-02-10T21:26:13.649Z,4.97
2019-02-10T21:29:42.322Z,4.99
2019-02-10T21:33:24.403Z,4.95
2019-02-10T21:37:05.120Z,5.00
2019-02-10T21:40:36.906Z,4.96
2019-02-10T21:43:58.113Z,5.04
2019-02-10T21:47:22.042Z,5.07
2019-02-10T21:50:37.599Z,5.04
2019-02-10T21:53:52.956Z,4.95
2019-02-10T21:57:08.308Z,4.91
2019-02-10T22:00:23.660Z,4.87
2019-02-10T22:03:38.808Z,4.95
2019-02-10T22:06:54.369Z,4.91
2019-02-10T22:10:10.732Z,4.90
2019-02-10T22:13:26.194Z,4.82
2019-02-10T22:16:41.451Z,4.83
2019-02-10T22:19:57.289Z,4.76
2019-02-10T22:23:13.503Z,4.73
2019-02-10T22:26:28.601Z,4.63
2019-02-10T22:29:44.107Z,4.59
2019-02-10T22:32:59.545Z,4.61
2019-02-10T22:36:15.097Z,4.46
2019-02-10T22:39:30.356Z,4.34
2019-02-10T22:42:46.173Z,4.25
2019-02-10T22:46:01.789Z,4.18
2019-02-10T22:49:16.935Z,4.12
2019-02-10T22:52:32.722Z,4.11
2019-02-10T22:55:48.138Z,4.15
2019-02-10T22:59:03.348Z,4.17
2019-02-10T23:02:18.489Z,4.16
2019-02-10T23:05:33.735Z,4.17
2019-02-10T23:08:49.509Z,4.20
2019-02-10T23:12:04.732Z,4.21
2019-02-10T23:15:20.295Z,4.22
2019-02-10T23:18:36.358Z,4.24
2019-02-10T23:21:51.626Z,4.34
2019-02-10T23:25:07.084Z,4.37
2019-02-10T23:28:22.538Z,4.32
2019-02-10T23:31:38.095Z,4.29
2019-02-10T23:34:53.349Z,4.32
2019-02-10T23:38:08.723Z,4.41
2019-02-10T23:41:24.051Z,4.46
2019-02-10T23:44:39.198Z,4.41
2019-02-10T23:47:54.461Z,4.45
2019-02-10T23:51:09.912Z,4.46
2019-02-10T23:54:25.207Z,4.50
2019-02-10T23:57:40.864Z,4.48
